createdAt,value
2018-12-29T00:02:21.169Z,95308.20
2018-12-29T00:04:47.497Z,95315.25
2018-12-29T00:07:13.848Z,95311.14
2018-12-29T00:09:40.177Z,95319.39
2018-12-29T00:12:06.543Z,95326.84
2018-12-29T00:14:32.865Z,95319.97
2018-12-29T00:16:59.243Z,95328.95
2018-12-29T00:19:25.570Z,95325.02
2018-12-29T00:21:51.911Z,95321.91
2018-12-29T00:24:18.237Z,95325.67
2018-12-29T00:26:44.628Z,95327.50
2018-12-29T00:29:10.973Z,95323.56
2018-12-29T00:31:37.316Z,95328.08
2018-12-29T00:34:03.685Z,95325.88
2018-12-29T00:36:30.000Z,95335.50
2018-12-29T00:38:56.359Z,95328.45
2018-12-29T00:41:25.068Z,95320.83
2018-12-29T00:43:51.397Z,95325.05
2018-12-29T00:46:17.751Z,95319.17
2018-12-29T00:48:44.125Z,95325.50
2018-12-29T00:51:10.454Z,95320.31
2018-12-29T00:53:36.798Z,95330.07
2018-12-29T00:56:03.158Z,95326.42
2018-12-29T00:58:29.487Z,95313.95
2018-12-29T01:00:55.819Z,95316.72
2018-12-29T01:03:22.155Z,95317.29
2018-12-29T01:05:48.477Z,95319.69
2018-12-29T01:08:14.810Z,95317.12
2018-12-29T01:10:41.141Z,95321.02
2018-12-29T01:13:07.494Z,95322.14
2018-12-29T01:15:33.851Z,95319.57
2018-12-29T01:18:00.216Z,95315.63
2018-12-29T01:20:26.543Z,95326.08
2018-12-29T01:22:52.870Z,95328.02
2018-12-29T01:25:19.208Z,95325.45
2018-12-29T01:27:45.550Z,95314.89
2018-12-29T01:30:11.884Z,95312.69
2018-12-29T01:32:38.213Z,95308.76
2018-12-29T01:35:04.543Z,95321.23
2018-12-29T01:37:30.956Z,95310.70
2018-12-29T01:39:57.285Z,95316.75
2018-12-29T01:42:23.622Z,95317.06
2018-12-29T01:44:49.965Z,95308.88
2018-12-29T01:47:16.353Z,95312.27
2018-12-29T01:49:42.679Z,95311.09
2018-12-29T01:52:09.011Z,95309.81
2018-12-29T01:54:35.341Z,95303.85
2018-12-29T01:57:01.690Z,95299.74
2018-12-29T01:59:28.038Z,95304.51
2018-12-29T02:01:54.477Z,95306.36
2018-12-29T02:04:20.804Z,95302.85
2018-12-29T02:06:47.130Z,95296.43
2018-12-29T02:09:13.543Z,95301.56
2018-12-29T02:11:39.864Z,95296.59
2018-12-29T02:14:06.241Z,95293.03
2018-12-29T02:16:32.571Z,95293.52
2018-12-29T02:18:58.961Z,95289.27
2018-12-29T02:21:25.291Z,95287.44
2018-12-29T02:23:51.625Z,95303.34
2018-12-29T02:26:18.055Z,95295.69
2018-12-29T02:28:44.437Z,95298.08
2018-12-29T02:31:10.766Z,95296.59
2018-12-29T02:33:37.172Z,95293.98
2018-12-29T02:36:03.503Z,95303.59
2018-12-29T02:38:29.843Z,95295.31
2018-12-29T02:40:56.221Z,95299.63
2018-12-29T02:43:22.568Z,95295.52
2018-12-29T02:45:48.994Z,95296.59
2018-12-29T02:48:15.320Z,95292.32
2018-12-29T02:50:41.793Z,95287.23
2018-12-29T02:53:08.168Z,95287.44
2018-12-29T02:55:34.533Z,95284.53
2018-12-29T02:58:00.905Z,95287.81
2018-12-29T03:00:27.237Z,95289.86
2018-12-29T03:02:53.668Z,95291.86
2018-12-29T03:05:20.003Z,95295.34
2018-12-29T03:07:46.425Z,95289.21
2018-12-29T03:10:12.763Z,95284.16
2018-12-29T03:12:39.124Z,95281.22
2018-12-29T03:15:05.475Z,95280.42
2018-12-29T03:17:31.865Z,95271.52
2018-12-29T03:19:58.228Z,95268.44
2018-12-29T03:22:24.576Z,95273.38
2018-12-29T03:24:50.926Z,95271.72
2018-12-29T03:27:17.302Z,95267.59
2018-12-29T03:29:43.638Z,95274.46
2018-12-29T03:32:09.999Z,95273.09
2018-12-29T03:34:36.406Z,95281.73
2018-12-29T03:37:02.758Z,95277.03
2018-12-29T03:39:29.157Z,95275.83
2018-12-29T03:41:55.588Z,95277.23
2018-12-29T03:44:21.945Z,95279.51
2018-12-29T03:46:48.269Z,95273.09
2018-12-29T03:49:14.585Z,95270.27
2018-12-29T03:51:40.974Z,95274.48
2018-12-29T03:54:07.346Z,95271.47
2018-12-29T03:56:33.936Z,95266.53
2018-12-29T03:59:00.260Z,95269.52
2018-12-29T04:01:26.598Z,95277.25
2018-12-29T04:03:53.009Z,95280.70
2018-12-29T04:06:19.338Z,95283.55
2018-12-29T04:08:45.710Z,95280.00
2018-12-29T04:11:12.049Z,95287.12
2018-12-29T04:13:38.482Z,95280.11
2018-12-29T04:16:04.770Z,95280.28
2018-12-29T04:18:31.085Z,95279.77
2018-12-29T04:20:57.463Z,95280.16
2018-12-29T04:23:23.785Z,95291.45
2018-12-29T04:25:50.174Z,95292.09
2018-12-29T04:28:16.507Z,95287.61
2018-12-29T04:30:42.939Z,95288.80
2018-12-29T04:33:09.284Z,95293.20
2018-12-29T04:35:35.691Z,95291.66
2018-12-29T04:38:02.072Z,95295.96
2018-12-29T04:40:28.506Z,95295.11
2018-12-29T04:42:54.792Z,95297.42
2018-12-29T04:45:21.201Z,95309.54
2018-12-29T04:47:47.538Z,95307.70
2018-12-29T04:50:13.911Z,95314.50
2018-12-29T04:52:40.240Z,95315.78
2018-12-29T04:55:06.635Z,95319.70
2018-12-29T04:57:33.020Z,95320.00
2018-12-29T04:59:59.350Z,95329.27
2018-12-29T05:02:25.735Z,95332.66
2018-12-29T05:04:52.072Z,95331.75
2018-12-29T05:07:18.454Z,95342.47
2018-12-29T05:09:44.774Z,95338.69
2018-12-29T05:12:11.169Z,95340.99
2018-12-29T05:14:37.528Z,95347.48
2018-12-29T05:17:04.002Z,95343.37
2018-12-29T05:19:30.354Z,95343.45
2018-12-29T05:21:56.691Z,95344.58
2018-12-29T05:24:23.064Z,95343.19
2018-12-29T05:26:49.481Z,95350.06
2018-12-29T05:29:15.911Z,95347.15
2018-12-29T05:31:42.190Z,95352.63
2018-12-29T05:34:08.620Z,95357.42
2018-12-29T05:36:34.970Z,95359.43
2018-12-29T05:39:01.308Z,95362.55
2018-12-29T05:41:27.684Z,95354.22
2018-12-29T05:43:54.016Z,95358.70
2018-12-29T05:46:20.776Z,95360.52
2018-12-29T05:48:46.683Z,95361.72
2018-12-29T05:51:13.015Z,95364.11
2018-12-29T05:53:39.369Z,95373.92
2018-12-29T05:56:05.736Z,95370.07
2018-12-29T05:58:32.059Z,95369.23
2018-12-29T06:00:58.549Z,95370.72
2018-12-29T06:03:24.841Z,95377.39
2018-12-29T06:05:51.173Z,95379.70
2018-12-29T06:08:17.555Z,95386.49
2018-12-29T06:10:43.937Z,95387.59
2018-12-29T06:13:10.298Z,95387.66
2018-12-29T06:15:36.684Z,95389.50
2018-12-29T06:18:03.031Z,95392.80
2018-12-29T06:20:29.408Z,95389.69
2018-12-29T06:22:55.836Z,95390.42
2018-12-29T06:25:22.159Z,95385.02
2018-12-29T06:27:48.508Z,95388.41
2018-12-29T06:30:14.880Z,95387.39
2018-12-29T06:32:41.265Z,95390.03
2018-12-29T06:35:07.591Z,95393.70
2018-12-29T06:37:33.982Z,95394.08
2018-12-29T06:40:00.341Z,95400.23
2018-12-29T06:42:26.696Z,95402.79
2018-12-29T06:44:53.017Z,95412.05
2018-12-29T06:47:19.458Z,95407.66
2018-12-29T06:49:45.764Z,95420.49
2018-12-29T06:52:12.149Z,95423.59
2018-12-29T06:54:38.513Z,95426.98
2018-12-29T06:57:04.905Z,95409.86
2018-12-29T06:59:31.316Z,95411.59
2018-12-29T07:01:57.589Z,95401.41
2018-12-29T07:04:23.973Z,95413.33
2018-12-29T07:06:50.300Z,95411.67
2018-12-29T07:09:16.637Z,95412.50
2018-12-29T07:11:42.986Z,95419.86
2018-12-29T07:14:09.363Z,95418.09
2018-12-29T07:16:42.055Z,95420.77
2018-12-29T07:19:02.096Z,95416.91
2018-12-29T07:21:28.470Z,95409.28
2018-12-29T07:23:54.762Z,95421.03
2018-12-29T07:26:21.097Z,95416.01
2018-12-29T07:28:47.435Z,95416.99
2018-12-29T07:31:13.778Z,95425.44
2018-12-29T07:33:40.106Z,95414.42
2018-12-29T07:36:06.524Z,95420.12
2018-12-29T07:38:32.853Z,95418.84
2018-12-29T07:40:59.254Z,95413.97
2018-12-29T07:43:25.545Z,95407.48
2018-12-29T07:45:51.924Z,95400.61
2018-12-29T07:48:18.270Z,95402.23
2018-12-29T07:50:44.599Z,95418.38
2018-12-29T07:53:10.926Z,95415.25
2018-12-29T07:55:37.295Z,95414.98
2018-12-29T07:58:05.930Z,95425.14
2018-12-29T08:00:32.275Z,95419.66
2018-12-29T08:02:58.659Z,95420.58
2018-12-29T08:05:25.009Z,95422.88
2018-12-29T08:07:51.394Z,95416.45
2018-12-29T08:10:17.799Z,95433.86
2018-12-29T08:12:44.243Z,95426.72
2018-12-29T08:15:10.623Z,95421.48
2018-12-29T08:17:37.093Z,95431.66
2018-12-29T08:20:03.470Z,95434.69
2018-12-29T08:22:29.810Z,95436.98
2018-12-29T08:24:59.284Z,95440.54
2018-12-29T08:27:25.647Z,95434.13
2018-12-29T08:29:52.001Z,95433.94
2018-12-29T08:32:18.358Z,95446.50
2018-12-29T08:34:44.699Z,95431.74
2018-12-29T08:37:11.084Z,95437.78
2018-12-29T08:39:37.419Z,95435.59
2018-12-29T08:42:03.744Z,95435.86
2018-12-29T08:44:30.080Z,95434.31
2018-12-29T08:46:56.515Z,95432.12
2018-12-29T08:49:22.856Z,95431.48
2018-12-29T08:51:49.301Z,95424.61
2018-12-29T08:54:15.651Z,95425.44
2018-12-29T08:56:42.079Z,95420.00
2018-12-29T08:59:08.380Z,95427.17
2018-12-29T09:01:34.753Z,95429.63
2018-12-29T09:04:01.082Z,95427.70
2018-12-29T09:06:27.591Z,95430.57
2018-12-29T09:08:53.980Z,95436.69
2018-12-29T09:11:20.383Z,95436.42
2018-12-29T09:13:46.760Z,95444.05
2018-12-29T09:16:13.091Z,95443.67
2018-12-29T09:18:39.477Z,95443.75
2018-12-29T09:21:05.958Z,95451.30
2018-12-29T09:23:32.292Z,95445.41
2018-12-29T09:25:58.748Z,95460.05
2018-12-29T09:28:25.080Z,95462.28
2018-12-29T09:30:51.408Z,95461.07
2018-12-29T09:33:17.804Z,95456.05
2018-12-29T09:35:44.172Z,95457.87
2018-12-29T09:38:10.590Z,95456.39
2018-12-29T09:40:36.886Z,95458.31
2018-12-29T09:43:03.250Z,95450.91
2018-12-29T09:45:29.596Z,95457.22
2018-12-29T09:47:55.941Z,95442.39
2018-12-29T09:50:22.329Z,95442.31
2018-12-29T09:52:48.727Z,95436.80
2018-12-29T09:55:15.063Z,95443.41
2018-12-29T09:57:41.404Z,95442.02
2018-12-29T10:00:07.742Z,95435.52
2018-12-29T10:02:34.082Z,95444.77
2018-12-29T10:05:00.418Z,95432.57
2018-12-29T10:07:26.835Z,95439.62
2018-12-29T10:09:53.180Z,95438.16
2018-12-29T10:12:19.479Z,95433.66
2018-12-29T10:14:45.817Z,95429.44
2018-12-29T10:17:12.193Z,95428.34
2018-12-29T10:19:38.523Z,95425.25
2018-12-29T10:22:04.885Z,95420.75
2018-12-29T10:24:31.268Z,95421.20
2018-12-29T10:26:57.664Z,95421.55
2018-12-29T10:29:24.019Z,95420.19
2018-12-29T10:31:50.392Z,95420.83
2018-12-29T10:34:16.766Z,95416.91
2018-12-29T10:36:43.063Z,95424.11
2018-12-29T10:39:09.392Z,95421.47
2018-12-29T10:41:35.792Z,95423.39
2018-12-29T10:44:02.132Z,95419.54
2018-12-29T10:46:28.513Z,95419.16
2018-12-29T10:48:54.874Z,95414.94
2018-12-29T10:51:21.207Z,95412.86
2018-12-29T10:53:47.544Z,95409.09
2018-12-29T10:56:13.938Z,95404.52
2018-12-29T10:58:40.312Z,95406.89
2018-12-29T11:01:06.694Z,95412.55
2018-12-29T11:03:33.027Z,95409.09
2018-12-29T11:05:59.354Z,95396.17
2018-12-29T11:08:25.703Z,95403.76
2018-12-29T11:10:52.036Z,95399.53
2018-12-29T11:13:18.445Z,95409.35
2018-12-29T11:15:44.781Z,95413.84
2018-12-29T11:18:11.112Z,95407.42
2018-12-29T11:20:37.444Z,95405.42
2018-12-29T11:23:03.839Z,95402.67
2018-12-29T11:25:30.196Z,95404.22
2018-12-29T11:27:56.611Z,95414.67
2018-12-29T11:30:22.931Z,95413.95
2018-12-29T11:32:49.361Z,95422.64
2018-12-29T11:35:15.704Z,95420.19
2018-12-29T11:37:42.082Z,95426.34
2018-12-29T11:40:08.413Z,95430.64
2018-12-29T11:42:34.755Z,95427.63
2018-12-29T11:45:01.086Z,95438.23
2018-12-29T11:47:27.474Z,95447.22
2018-12-29T11:49:53.813Z,95443.94
2018-12-29T11:52:20.147Z,95446.61
2018-12-29T11:54:46.520Z,95446.05
2018-12-29T11:57:12.912Z,95450.27
2018-12-29T11:59:39.243Z,95456.50
2018-12-29T12:02:06.800Z,95456.77
2018-12-29T12:04:31.922Z,95457.52
2018-12-29T12:06:58.306Z,95451.19
2018-12-29T12:09:24.717Z,95450.81
2018-12-29T12:11:51.097Z,95457.34
2018-12-29T12:14:17.443Z,95459.91
2018-12-29T12:16:43.790Z,95464.84
2018-12-29T12:19:10.236Z,95465.11
2018-12-29T12:21:36.577Z,95467.41
2018-12-29T12:24:02.960Z,95465.03
2018-12-29T12:26:29.251Z,95464.84
2018-12-29T12:28:55.765Z,95459.80
2018-12-29T12:31:22.098Z,95466.02
2018-12-29T12:33:48.522Z,95460.55
2018-12-29T12:36:14.857Z,95463.45
2018-12-29T12:38:41.242Z,95466.31
2018-12-29T12:41:07.606Z,95472.36
2018-12-29T12:43:33.963Z,95471.34
2018-12-29T12:46:00.269Z,95474.47
2018-12-29T12:48:26.608Z,95472.28
2018-12-29T12:50:52.989Z,95478.06
2018-12-29T12:53:19.390Z,95479.98
2018-12-29T12:55:45.730Z,95481.53
2018-12-29T12:58:12.069Z,95478.33
2018-12-29T13:00:38.449Z,95486.74
2018-12-29T13:03:04.781Z,95483.72
2018-12-29T13:05:31.144Z,95485.01
2018-12-29T13:07:57.480Z,95484.17
2018-12-29T13:10:23.799Z,95486.74
2018-12-29T13:12:50.133Z,95486.74
2018-12-29T13:15:16.462Z,95492.70
2018-12-29T13:17:42.837Z,95500.70
2018-12-29T13:20:09.198Z,95498.78
2018-12-29T13:22:35.553Z,95508.11
2018-12-29T13:25:01.890Z,95509.77
2018-12-29T13:27:28.257Z,95508.86
2018-12-29T13:29:54.592Z,95510.14
2018-12-29T13:32:20.993Z,95511.42
2018-12-29T13:34:47.325Z,95521.58
2018-12-29T13:37:13.657Z,95527.16
2018-12-29T13:39:39.978Z,95526.26
2018-12-29T13:42:06.311Z,95532.78
2018-12-29T13:44:32.668Z,95537.00
2018-12-29T13:46:59.064Z,95542.56
2018-12-29T13:49:25.494Z,95543.69
2018-12-29T13:51:51.803Z,95547.43
2018-12-29T13:54:18.184Z,95551.74
2018-12-29T13:56:44.547Z,95547.43
2018-12-29T13:59:10.949Z,95543.87
2018-12-29T14:01:37.282Z,95545.16
2018-12-29T14:04:03.671Z,95552.85
2018-12-29T14:06:30.001Z,95554.21
2018-12-29T14:08:56.328Z,95550.64
2018-12-29T14:11:22.662Z,95553.58
2018-12-29T14:13:48.987Z,95557.42
2018-12-29T14:16:15.360Z,95558.91
2018-12-29T14:18:41.751Z,95558.44
2018-12-29T14:21:08.095Z,95558.33
2018-12-29T14:23:34.492Z,95560.64
2018-12-29T14:26:00.850Z,95557.42
2018-12-29T14:28:27.184Z,95574.22
2018-12-29T14:30:53.517Z,95570.71
2018-12-29T14:33:19.908Z,95575.75
2018-12-29T14:35:46.290Z,95573.56
2018-12-29T14:38:12.647Z,95577.87
2018-12-29T14:40:39.002Z,95580.98
2018-12-29T14:43:05.333Z,95585.19
2018-12-29T14:45:31.728Z,95587.37
2018-12-29T14:47:58.113Z,95594.63
2018-12-29T14:50:24.430Z,95583.53
2018-12-29T14:52:50.797Z,95592.99
2018-12-29T14:55:17.163Z,95594.73
2018-12-29T14:57:43.556Z,95598.47
2018-12-29T15:00:09.907Z,95602.50
2018-12-29T15:02:36.322Z,95600.59
2018-12-29T15:05:02.662Z,95599.86
2018-12-29T15:07:29.185Z,95602.95
2018-12-29T15:09:55.570Z,95604.54
2018-12-29T15:12:21.847Z,95613.04
2018-12-29T15:14:48.182Z,95606.92
2018-12-29T15:17:14.586Z,95605.52
2018-12-29T15:19:40.933Z,95605.63
2018-12-29T15:22:07.324Z,95618.53
2018-12-29T15:24:33.727Z,95616.34
2018-12-29T15:27:00.072Z,95615.44
2018-12-29T15:29:26.399Z,95618.09
2018-12-29T15:31:52.728Z,95617.63
2018-12-29T15:34:19.134Z,95619.56
2018-12-29T15:36:45.490Z,95616.16
2018-12-29T15:39:11.852Z,95622.30
2018-12-29T15:41:38.239Z,95630.83
2018-12-29T15:44:04.639Z,95630.55
2018-12-29T15:46:30.979Z,95635.03
2018-12-29T15:48:57.322Z,95634.20
2018-12-29T15:51:23.655Z,95640.79
2018-12-29T15:53:50.004Z,95646.03
2018-12-29T15:56:16.459Z,95648.21
2018-12-29T15:58:42.878Z,95649.70
2018-12-29T16:01:09.179Z,95649.32
2018-12-29T16:03:35.509Z,95651.81
2018-12-29T16:06:01.911Z,95654.63
2018-12-29T16:08:28.238Z,95655.56
2018-12-29T16:10:54.621Z,95660.39
2018-12-29T16:13:20.915Z,95663.05
2018-12-29T16:15:47.334Z,95658.75
2018-12-29T16:18:13.660Z,95670.13
2018-12-29T16:20:40.032Z,95665.00
2018-12-29T16:23:06.336Z,95668.31
2018-12-29T16:25:32.711Z,95663.53
2018-12-29T16:27:59.049Z,95662.25
2018-12-29T16:30:25.389Z,95669.39
2018-12-29T16:32:51.739Z,95676.81
2018-12-29T16:35:18.093Z,95674.08
2018-12-29T16:37:44.434Z,95676.02
2018-12-29T16:40:10.766Z,95675.70
2018-12-29T16:42:37.162Z,95672.52
2018-12-29T16:45:03.514Z,95674.32
2018-12-29T16:47:29.827Z,95672.23
2018-12-29T16:49:56.166Z,95679.45
2018-12-29T16:52:22.526Z,95683.12
2018-12-29T16:54:48.886Z,95687.70
2018-12-29T16:57:15.298Z,95693.29
2018-12-29T16:59:41.611Z,95700.53
2018-12-29T17:02:07.939Z,95702.69
2018-12-29T17:04:34.280Z,95701.09
2018-12-29T17:07:00.610Z,95699.80
2018-12-29T17:09:26.941Z,95704.70
2018-12-29T17:11:53.310Z,95701.19
2018-12-29T17:14:19.639Z,95704.63
2018-12-29T17:16:46.007Z,95695.78
2018-12-29T17:19:14.863Z,95707.50
2018-12-29T17:21:38.700Z,95702.55
2018-12-29T17:24:05.042Z,95700.16
2018-12-29T17:26:31.369Z,95703.27
2018-12-29T17:28:57.763Z,95700.70
2018-12-29T17:31:24.106Z,95699.15
2018-12-29T17:33:50.437Z,95705.28
2018-12-29T17:36:16.815Z,95702.06
2018-12-29T17:38:43.277Z,95698.70
2018-12-29T17:41:11.261Z,95690.66
2018-12-29T17:43:35.937Z,95692.11
2018-12-29T17:46:02.350Z,95690.79
2018-12-29T17:48:28.676Z,95689.06
2018-12-29T17:50:55.036Z,95692.73
2018-12-29T17:53:21.371Z,95688.44
2018-12-29T17:55:47.716Z,95682.30
2018-12-29T17:58:14.051Z,95683.48
2018-12-29T18:00:40.396Z,95687.25
2018-12-29T18:03:06.735Z,95686.49
2018-12-29T18:05:33.126Z,95686.22
2018-12-29T18:07:59.416Z,95691.91
2018-12-29T18:10:25.794Z,95691.97
2018-12-29T18:12:52.212Z,95691.17
2018-12-29T18:15:18.748Z,95693.08
2018-12-29T18:17:45.139Z,95681.02
2018-12-29T18:20:11.433Z,95691.06
2018-12-29T18:22:37.982Z,95690.17
2018-12-29T18:25:04.287Z,95696.66
2018-12-29T18:27:30.680Z,95693.36
2018-12-29T18:29:56.982Z,95701.61
2018-12-29T18:32:23.373Z,95701.88
2018-12-29T18:34:49.707Z,95704.28
2018-12-29T18:37:16.047Z,95708.13
2018-12-29T18:39:42.424Z,95704.73
2018-12-29T18:42:08.766Z,95708.20
2018-12-29T18:44:35.142Z,95709.76
2018-12-29T18:47:01.525Z,95704.84
2018-12-29T18:49:27.827Z,95704.73
2018-12-29T18:51:54.153Z,95704.52
2018-12-29T18:54:20.511Z,95707.47
2018-12-29T18:56:46.846Z,95704.34
2018-12-29T18:59:13.168Z,95707.58
2018-12-29T19:01:39.533Z,95712.14
2018-12-29T19:04:05.858Z,95705.84
2018-12-29T19:06:32.227Z,95705.91
2018-12-29T19:08:58.531Z,95707.12
2018-12-29T19:11:24.867Z,95710.86
2018-12-29T19:13:51.317Z,95711.14
2018-12-29T19:16:17.543Z,95712.88
2018-12-29T19:18:43.882Z,95710.24
2018-12-29T19:21:10.264Z,95712.05
2018-12-29T19:23:36.598Z,95714.33
2018-12-29T19:26:03.045Z,95721.58
2018-12-29T19:28:29.397Z,95720.30
2018-12-29T19:30:55.663Z,95714.05
2018-12-29T19:33:22.071Z,95714.54
2018-12-29T19:35:48.401Z,95719.36
2018-12-29T19:38:14.786Z,95710.86
2018-12-29T19:40:41.111Z,95711.66
2018-12-29T19:43:07.487Z,95717.63
2018-12-29T19:45:33.818Z,95712.14
2018-12-29T19:48:00.197Z,95720.02
2018-12-29T19:50:26.519Z,95721.20
2018-12-29T19:52:52.905Z,95719.36
2018-12-29T19:55:19.280Z,95724.66
2018-12-29T19:57:45.704Z,95722.65
2018-12-29T20:00:12.041Z,95719.53
2018-12-29T20:02:38.417Z,95718.73
2018-12-29T20:05:04.745Z,95719.42
2018-12-29T20:07:31.130Z,95720.47
2018-12-29T20:09:57.471Z,95729.62
2018-12-29T20:12:23.844Z,95718.73
2018-12-29T20:14:50.244Z,95721.47
2018-12-29T20:17:16.644Z,95719.04
2018-12-29T20:19:43.052Z,95721.92
2018-12-29T20:22:09.384Z,95723.27
2018-12-29T20:24:35.777Z,95722.37
2018-12-29T20:27:02.109Z,95724.14
2018-12-29T20:29:28.482Z,95723.03
2018-12-29T20:31:54.830Z,95720.19
2018-12-29T20:34:21.168Z,95726.67
2018-12-29T20:36:47.554Z,95725.22
2018-12-29T20:39:13.892Z,95725.10
2018-12-29T20:41:40.268Z,95727.12
2018-12-29T20:44:06.597Z,95731.17
2018-12-29T20:46:33.026Z,95729.97
2018-12-29T20:48:59.464Z,95726.00
2018-12-29T20:51:25.795Z,95731.63
2018-12-29T20:53:52.128Z,95737.00
2018-12-29T20:56:18.527Z,95734.98
2018-12-29T20:58:44.862Z,95739.66
2018-12-29T21:01:11.188Z,95740.05
2018-12-29T21:03:37.590Z,95736.76
2018-12-29T21:06:03.929Z,95746.36
2018-12-29T21:08:30.305Z,95745.35
2018-12-29T21:10:56.643Z,95747.02
2018-12-29T21:13:22.975Z,95745.73
2018-12-29T21:15:49.366Z,95745.45
2018-12-29T21:18:15.706Z,95739.16
2018-12-29T21:20:42.034Z,95740.70
2018-12-29T21:23:08.453Z,95742.63
2018-12-29T21:25:34.846Z,95744.39
2018-12-29T21:28:01.215Z,95738.59
2018-12-29T21:30:27.529Z,95749.38
2018-12-29T21:32:53.923Z,95744.55
2018-12-29T21:35:20.289Z,95741.44
2018-12-29T21:37:46.648Z,95734.30
2018-12-29T21:40:13.019Z,95741.78
2018-12-29T21:42:39.341Z,95735.58
2018-12-29T21:45:05.708Z,95735.86
2018-12-29T21:47:32.046Z,95737.76
2018-12-29T21:49:58.385Z,95735.92
2018-12-29T21:52:24.793Z,95734.30
2018-12-29T21:54:51.121Z,95726.45
2018-12-29T21:57:17.525Z,95723.98
2018-12-29T21:59:43.855Z,95718.31
2018-12-29T22:02:10.219Z,95714.56
2018-12-29T22:04:36.556Z,95712.80
2018-12-29T22:07:02.950Z,95713.01
2018-12-29T22:09:29.291Z,95709.72
2018-12-29T22:11:55.713Z,95706.22
2018-12-29T22:14:22.057Z,95702.75
2018-12-29T22:16:48.436Z,95699.45
2018-12-29T22:19:14.790Z,95698.23
2018-12-29T22:21:41.171Z,95696.95
2018-12-29T22:24:07.502Z,95694.53
2018-12-29T22:26:33.986Z,95694.53
2018-12-29T22:29:00.324Z,95684.00
2018-12-29T22:31:26.650Z,95689.09
2018-12-29T22:33:52.969Z,95680.73
2018-12-29T22:36:19.375Z,95675.36
2018-12-29T22:38:45.711Z,95678.31
2018-12-29T22:41:12.106Z,95671.23
2018-12-29T22:43:38.537Z,95673.42
2018-12-29T22:46:05.013Z,95669.23
2018-12-29T22:48:31.429Z,95676.72
2018-12-29T22:50:57.781Z,95673.80
2018-12-29T22:53:24.192Z,95669.58
2018-12-29T22:55:50.523Z,95667.56
2018-12-29T22:58:16.890Z,95660.53
2018-12-29T23:00:43.242Z,95655.92
2018-12-29T23:03:09.574Z,95651.23
2018-12-29T23:05:36.007Z,95644.93
2018-12-29T23:08:02.273Z,95643.79
2018-12-29T23:10:28.681Z,95638.28
2018-12-29T23:12:55.011Z,95641.58
2018-12-29T23:15:21.385Z,95636.09
2018-12-29T23:17:47.750Z,95629.23
2018-12-29T23:20:14.096Z,95629.37
2018-12-29T23:22:40.480Z,95632.11
2018-12-29T23:25:06.816Z,95626.98
2018-12-29T23:27:33.150Z,95623.72
2018-12-29T23:30:00.627Z,95628.13
2018-12-29T23:32:25.859Z,95629.69
2018-12-29T23:34:52.244Z,95627.36
2018-12-29T23:37:18.584Z,95626.17
2018-12-29T23:39:47.627Z,95620.77
2018-12-29T23:42:14.007Z,95626.73
2018-12-29T23:44:40.397Z,95627.63
2018-12-29T23:47:06.737Z,95623.41
2018-12-29T23:49:33.145Z,95624.41
2018-12-29T23:51:59.492Z,95623.63
2018-12-29T23:54:25.866Z,95628.74
2018-12-29T23:56:52.199Z,95624.23
2018-12-29T23:59:18.652Z,95630.20
